createdAt,value
2023-03-03T00:00:52.262Z,24.73
2023-03-03T00:03:22.341Z,25.35
2023-03-03T00:05:50.689Z,24.67
2023-03-03T00:08:19.256Z,27.05
2023-03-03T00:10:47.157Z,23.35
2023-03-03T00:13:23.208Z,23.80
2023-03-03T00:15:51.880Z,21.80
2023-03-03T00:18:24.082Z,27.30
2023-03-03T00:23:40.537Z,26.65
2023-03-03T00:26:21.052Z,31.00
2023-03-03T00:28:54.576Z,25.17
2023-03-03T00:31:29.765Z,24.85
2023-03-03T00:34:20.261Z,28.00
2023-03-03T00:36:49.647Z,24.70
2023-03-03T00:39:34.126Z,25.65
2023-03-03T00:42:05.304Z,23.52
2023-03-03T00:44:45.636Z,26.35
2023-03-03T00:47:33.879Z,24.02
2023-03-03T00:50:07.363Z,23.45
2023-03-03T00:52:40.112Z,23.55
2023-03-03T00:57:35.766Z,26.75
2023-03-03T01:00:05.321Z,25.15
2023-03-03T01:02:33.169Z,23.75
2023-03-03T01:05:01.032Z,24.33
2023-03-03T01:07:28.369Z,24.05
2023-03-03T01:09:55.729Z,23.38
2023-03-03T01:12:24.289Z,21.23
2023-03-03T01:14:53.024Z,23.70
2023-03-03T01:17:20.539Z,23.58
2023-03-03T01:19:48.313Z,20.75
2023-03-03T01:22:16.053Z,22.05
2023-03-03T01:24:43.452Z,27.33
2023-03-03T01:27:11.371Z,21.58
2023-03-03T01:29:38.880Z,21.85
2023-03-03T01:32:06.423Z,24.45
2023-03-03T01:34:34.120Z,21.48
2023-03-03T01:37:01.575Z,26.08
2023-03-03T01:39:28.910Z,25.80
2023-03-03T01:41:56.761Z,21.48
2023-03-03T01:44:24.197Z,23.33
2023-03-03T01:46:55.774Z,22.02
2023-03-03T01:49:29.738Z,22.80
2023-03-03T01:52:00.135Z,21.50
2023-03-03T01:54:30.628Z,20.23
2023-03-03T01:57:01.581Z,24.08
2023-03-03T01:59:32.357Z,24.23
2023-03-03T02:01:59.779Z,20.85
2023-03-03T02:04:28.837Z,20.83
2023-03-03T02:07:01.865Z,22.37
2023-03-03T02:09:51.075Z,20.92
2023-03-03T02:12:20.937Z,20.80
2023-03-03T02:14:48.324Z,22.27
2023-03-03T02:17:16.402Z,21.73
2023-03-03T02:19:49.108Z,19.70
2023-03-03T02:22:18.563Z,22.45
2023-03-03T02:24:59.065Z,22.17
2023-03-03T02:27:28.224Z,21.73
2023-03-03T02:29:55.923Z,22.17
2023-03-03T02:32:23.400Z,23.58
2023-03-03T02:34:52.477Z,21.37
2023-03-03T02:37:20.815Z,19.83
2023-03-03T02:39:48.225Z,24.23
2023-03-03T02:42:20.460Z,22.25
2023-03-03T02:44:49.131Z,19.73
2023-03-03T02:47:16.746Z,22.25
2023-03-03T02:49:45.195Z,21.30
2023-03-03T02:52:14.728Z,24.05
2023-03-03T02:54:42.609Z,21.35
2023-03-03T02:57:10.084Z,19.95
2023-03-03T02:59:37.821Z,17.87
2023-03-03T03:02:07.335Z,18.92
2023-03-03T03:04:35.773Z,21.55
2023-03-03T03:07:04.744Z,19.77
2023-03-03T03:09:32.670Z,19.87
2023-03-03T03:12:02.475Z,19.42
2023-03-03T03:14:31.017Z,22.70
2023-03-03T03:16:59.256Z,18.62
2023-03-03T03:19:28.168Z,21.23
2023-03-03T03:21:56.133Z,20.62
2023-03-03T03:24:23.714Z,19.80
2023-03-03T03:26:52.397Z,18.55
2023-03-03T03:29:20.153Z,22.55
2023-03-03T03:31:47.938Z,18.35
2023-03-03T03:34:15.364Z,18.67
2023-03-03T03:36:46.532Z,20.62
2023-03-03T03:39:14.397Z,16.73
2023-03-03T03:41:42.442Z,18.08
2023-03-03T03:44:10.218Z,18.83
2023-03-03T03:46:38.175Z,17.67
2023-03-03T03:49:06.380Z,21.30
2023-03-03T03:51:35.562Z,18.98
2023-03-03T03:54:03.391Z,18.02
2023-03-03T03:56:31.913Z,20.42
2023-03-03T03:59:00.927Z,17.55
2023-03-03T04:01:28.742Z,17.05
2023-03-03T04:03:57.249Z,16.85
2023-03-03T04:06:25.335Z,16.08
2023-03-03T04:08:53.033Z,18.48
2023-03-03T04:11:21.325Z,17.15
2023-03-03T04:13:48.819Z,20.80
2023-03-03T04:16:16.662Z,18.17
2023-03-03T04:18:46.560Z,19.80
2023-03-03T04:21:15.321Z,18.40
2023-03-03T04:23:43.222Z,16.45
2023-03-03T04:26:11.384Z,24.80
2023-03-03T04:28:39.461Z,18.48
2023-03-03T04:31:07.130Z,20.17
2023-03-03T04:33:35.047Z,19.58
2023-03-03T04:36:03.053Z,21.70
2023-03-03T04:38:30.506Z,21.42
2023-03-03T04:40:58.340Z,24.95
2023-03-03T04:43:26.207Z,30.85
2023-03-03T04:45:54.091Z,30.40
2023-03-03T04:48:21.899Z,27.23
2023-03-03T04:50:49.531Z,24.73
2023-03-03T04:53:16.996Z,22.10
2023-03-03T04:55:44.901Z,24.70
2023-03-03T04:58:12.593Z,27.70
2023-03-03T05:00:40.127Z,23.98
2023-03-03T05:03:10.655Z,22.75
2023-03-03T05:05:40.985Z,26.52
2023-03-03T05:08:08.630Z,23.77
2023-03-03T05:10:36.028Z,26.85
2023-03-03T05:13:03.507Z,23.87
2023-03-03T05:15:31.648Z,23.12
2023-03-03T05:17:59.205Z,21.65
2023-03-03T05:20:26.842Z,23.40
2023-03-03T05:22:54.886Z,22.73
2023-03-03T05:25:22.305Z,24.42
2023-03-03T05:27:50.049Z,24.65
2023-03-03T05:30:17.812Z,23.00
2023-03-03T05:32:46.725Z,25.42
2023-03-03T05:35:14.315Z,25.92
2023-03-03T05:37:46.810Z,24.42
2023-03-03T05:42:42.449Z,22.05
2023-03-03T05:45:10.200Z,28.00
2023-03-03T05:47:37.987Z,24.25
2023-03-03T05:50:05.942Z,26.27
2023-03-03T05:52:33.370Z,29.63
2023-03-03T05:55:00.757Z,30.58
2023-03-03T05:57:28.473Z,22.87
2023-03-03T05:59:55.901Z,26.02
2023-03-03T06:02:23.253Z,18.40
2023-03-03T06:04:51.165Z,21.65
2023-03-03T06:07:18.551Z,22.62
2023-03-03T06:09:45.976Z,18.80
2023-03-03T06:12:13.613Z,15.57
2023-03-03T06:14:41.022Z,17.70
2023-03-03T06:17:08.359Z,18.33
2023-03-03T06:19:36.705Z,19.42
2023-03-03T06:22:04.097Z,23.02
2023-03-03T06:24:31.609Z,20.00
2023-03-03T06:26:59.410Z,18.62
2023-03-03T06:29:27.655Z,23.50
2023-03-03T06:31:55.384Z,20.55
2023-03-03T06:34:23.162Z,19.73
2023-03-03T06:36:50.671Z,23.33
2023-03-03T06:39:18.124Z,20.88
2023-03-03T06:41:45.749Z,24.55
2023-03-03T06:44:13.168Z,26.37
2023-03-03T06:46:40.534Z,28.85
2023-03-03T06:49:08.244Z,25.00
2023-03-03T06:51:39.845Z,22.70
2023-03-03T06:54:12.395Z,32.97
2023-03-03T06:56:41.175Z,31.52
2023-03-03T06:59:16.552Z,34.10
2023-03-03T07:01:45.973Z,31.95
2023-03-03T07:04:19.523Z,31.33
2023-03-03T07:06:47.215Z,35.67
2023-03-03T07:09:24.053Z,29.80
2023-03-03T07:11:52.902Z,25.98
2023-03-03T07:14:21.190Z,26.33
2023-03-03T07:16:54.975Z,28.20
2023-03-03T07:19:34.950Z,25.17
2023-03-03T07:22:16.918Z,31.60
2023-03-03T07:24:53.211Z,24.10
2023-03-03T07:27:24.994Z,58.22
2023-03-03T07:29:56.245Z,42.45
2023-03-03T07:32:40.440Z,36.00
2023-03-03T07:35:25.631Z,34.25
2023-03-03T07:37:53.044Z,33.97
2023-03-03T07:40:45.000Z,34.70
2023-03-03T07:43:28.464Z,29.17
2023-03-03T07:46:14.986Z,31.70
2023-03-03T07:48:42.874Z,37.47
2023-03-03T07:51:22.593Z,31.05
2023-03-03T07:53:50.259Z,32.33
2023-03-03T07:56:28.714Z,39.88
2023-03-03T07:58:57.468Z,33.42
2023-03-03T08:01:43.888Z,31.23
2023-03-03T08:04:38.180Z,38.15
2023-03-03T08:07:12.277Z,35.45
2023-03-03T08:10:01.833Z,34.15
2023-03-03T08:12:39.218Z,34.85
2023-03-03T08:15:20.422Z,38.97
2023-03-03T08:17:48.863Z,37.53
2023-03-03T08:20:34.705Z,33.78
2023-03-03T08:23:02.094Z,55.30
2023-03-03T08:25:29.846Z,38.90
2023-03-03T08:27:57.238Z,40.78
2023-03-03T08:30:24.642Z,32.47
2023-03-03T08:32:52.342Z,32.85
2023-03-03T08:35:19.946Z,30.15
2023-03-03T08:37:47.325Z,27.00
2023-03-03T08:40:15.191Z,21.45
2023-03-03T08:42:42.537Z,25.17
2023-03-03T08:45:09.957Z,30.92
2023-03-03T08:47:38.790Z,24.55
2023-03-03T08:50:06.633Z,22.92
2023-03-03T08:52:34.362Z,25.52
2023-03-03T08:55:02.693Z,23.08
2023-03-03T08:57:30.129Z,26.02
2023-03-03T08:59:57.647Z,23.83
2023-03-03T09:02:25.280Z,22.33
2023-03-03T09:04:52.745Z,28.33
2023-03-03T09:07:20.173Z,26.77
2023-03-03T09:09:47.818Z,26.33
2023-03-03T09:12:21.547Z,26.42
2023-03-03T09:14:51.088Z,22.73
2023-03-03T09:17:33.293Z,23.52
2023-03-03T09:22:36.792Z,29.37
2023-03-03T09:25:19.218Z,25.60
2023-03-03T09:27:46.594Z,29.27
2023-03-03T09:30:26.447Z,28.95
2023-03-03T09:32:56.660Z,24.92
2023-03-03T09:35:38.710Z,26.58
2023-03-03T09:38:27.561Z,27.48
2023-03-03T09:41:04.349Z,22.90
2023-03-03T09:44:01.101Z,22.70
2023-03-03T09:46:43.585Z,24.25
2023-03-03T09:49:27.664Z,24.40
2023-03-03T09:51:58.217Z,22.37
2023-03-03T09:54:34.161Z,20.52
2023-03-03T09:57:22.506Z,21.35
2023-03-03T10:00:08.549Z,23.45
2023-03-03T10:02:52.958Z,20.73
2023-03-03T10:05:36.267Z,19.42
2023-03-03T10:08:18.060Z,18.05
2023-03-03T10:11:02.058Z,14.82
2023-03-03T10:13:47.543Z,18.00
2023-03-03T10:17:06.382Z,19.08
2023-03-03T10:20:00.202Z,18.12
2023-03-03T10:22:39.476Z,16.27
2023-03-03T10:25:37.776Z,18.60
2023-03-03T10:28:13.603Z,16.87
2023-03-03T10:30:58.228Z,15.15
2023-03-03T10:33:40.831Z,18.00
2023-03-03T10:36:41.580Z,15.32
2023-03-03T10:39:21.281Z,13.23
2023-03-03T10:42:22.422Z,14.90
2023-03-03T10:45:05.310Z,16.33
2023-03-03T10:47:44.724Z,14.48
2023-03-03T10:50:21.654Z,15.35
2023-03-03T10:52:58.951Z,16.05
2023-03-03T10:55:42.624Z,16.20
2023-03-03T10:58:32.430Z,17.95
2023-03-03T11:01:06.794Z,18.70
2023-03-03T11:03:49.937Z,26.60
2023-03-03T11:06:36.509Z,27.58
2023-03-03T11:09:15.534Z,28.58
2023-03-03T11:11:55.535Z,18.98
2023-03-03T11:14:35.637Z,17.70
2023-03-03T11:17:05.736Z,15.55
2023-03-03T11:19:52.746Z,15.48
2023-03-03T11:22:39.820Z,17.20
2023-03-03T11:25:23.598Z,20.77
2023-03-03T11:28:12.681Z,17.77
2023-03-03T11:31:07.550Z,18.95
2023-03-03T11:33:51.910Z,25.12
2023-03-03T11:36:32.326Z,17.25
2023-03-03T11:39:12.098Z,16.73
2023-03-03T11:41:51.499Z,14.13
2023-03-03T11:44:27.623Z,13.50
2023-03-03T11:47:19.394Z,13.43
2023-03-03T11:49:51.676Z,12.50
2023-03-03T11:52:49.042Z,14.82
2023-03-03T11:55:34.057Z,15.25
2023-03-03T11:58:14.439Z,15.18
2023-03-03T12:00:48.442Z,12.18
2023-03-03T12:03:30.698Z,15.50
2023-03-03T12:06:13.384Z,10.77
2023-03-03T12:08:55.993Z,12.18
2023-03-03T12:11:31.790Z,16.12
2023-03-03T12:14:18.256Z,16.95
2023-03-03T12:16:55.004Z,21.58
2023-03-03T12:19:32.018Z,18.30
2023-03-03T12:22:17.580Z,15.93
2023-03-03T12:25:03.798Z,17.60
2023-03-03T12:27:49.076Z,14.55
2023-03-03T12:30:27.148Z,16.00
2023-03-03T12:33:12.857Z,17.52
2023-03-03T12:35:58.074Z,16.00
2023-03-03T12:38:28.536Z,16.83
2023-03-03T12:41:21.629Z,23.65
2023-03-03T12:44:01.211Z,15.48
2023-03-03T12:46:56.883Z,14.27
2023-03-03T12:49:42.775Z,12.82
2023-03-03T12:52:26.748Z,12.90
2023-03-03T12:55:30.170Z,12.20
2023-03-03T12:58:28.890Z,14.43
2023-03-03T13:01:17.674Z,14.60
2023-03-03T13:04:05.197Z,15.93
2023-03-03T13:06:44.861Z,15.70
2023-03-03T13:09:54.079Z,13.52
2023-03-03T13:12:36.050Z,19.50
2023-03-03T13:15:33.284Z,16.00
2023-03-03T13:18:25.320Z,13.75
2023-03-03T13:21:02.220Z,17.27
2023-03-03T13:23:38.389Z,17.60
2023-03-03T13:26:33.725Z,15.30
2023-03-03T13:29:10.548Z,17.37
2023-03-03T13:31:47.885Z,19.45
2023-03-03T13:34:24.626Z,17.15
2023-03-03T13:37:32.411Z,15.15
2023-03-03T13:40:20.125Z,16.45
2023-03-03T13:42:52.302Z,16.58
2023-03-03T13:45:32.937Z,17.95
2023-03-03T13:48:03.904Z,17.20
2023-03-03T13:50:53.993Z,18.48
2023-03-03T13:53:52.187Z,17.10
2023-03-03T13:56:33.326Z,17.05
2023-03-03T13:59:18.471Z,15.60
2023-03-03T14:02:01.778Z,15.20
2023-03-03T14:04:35.471Z,16.67
2023-03-03T14:07:14.446Z,15.35
2023-03-03T14:09:44.115Z,14.48
2023-03-03T14:12:38.974Z,16.02
2023-03-03T14:15:23.691Z,14.80
2023-03-03T14:18:03.936Z,15.93
2023-03-03T14:20:34.851Z,16.12
2023-03-03T14:23:04.359Z,16.00
2023-03-03T14:25:52.806Z,17.65
2023-03-03T14:28:31.213Z,15.93
2023-03-03T14:31:14.927Z,19.30
2023-03-03T14:33:44.710Z,14.18
2023-03-03T14:36:13.291Z,21.55
2023-03-03T14:38:44.796Z,19.50
2023-03-03T14:41:12.348Z,13.80
2023-03-03T14:43:41.791Z,16.00
2023-03-03T14:46:44.841Z,18.48
2023-03-03T14:49:30.747Z,17.98
2023-03-03T14:52:22.398Z,19.87
2023-03-03T14:54:55.631Z,20.88
2023-03-03T14:57:51.197Z,21.50
2023-03-03T15:00:22.137Z,20.48
2023-03-03T15:02:52.252Z,19.92
2023-03-03T15:05:28.025Z,18.30
2023-03-03T15:08:03.254Z,19.92
2023-03-03T15:10:39.215Z,20.40
2023-03-03T15:13:22.006Z,19.23
2023-03-03T15:16:00.954Z,19.87
2023-03-03T15:18:30.058Z,23.02
2023-03-03T15:21:05.890Z,19.92
2023-03-03T15:23:33.192Z,21.35
2023-03-03T15:26:06.554Z,21.90
2023-03-03T15:28:52.402Z,23.83
2023-03-03T15:31:32.140Z,22.98
2023-03-03T15:34:12.592Z,23.23
2023-03-03T15:36:55.549Z,23.12
2023-03-03T15:39:47.292Z,20.88
2023-03-03T15:42:43.316Z,23.30
2023-03-03T15:45:31.701Z,25.67
2023-03-03T15:48:43.884Z,20.08
2023-03-03T15:51:31.360Z,20.42
2023-03-03T15:53:58.938Z,22.37
2023-03-03T15:56:26.293Z,22.77
2023-03-03T15:59:18.468Z,22.62
2023-03-03T16:01:57.436Z,20.37
2023-03-03T16:04:29.487Z,26.20
2023-03-03T16:07:06.026Z,21.50
2023-03-03T16:09:39.852Z,23.02
2023-03-03T16:12:28.761Z,23.42
2023-03-03T16:15:21.932Z,30.80
2023-03-03T16:18:11.358Z,24.73
2023-03-03T16:20:52.546Z,27.15
2023-03-03T16:23:32.316Z,28.02
2023-03-03T16:26:30.350Z,28.48
2023-03-03T16:29:36.086Z,26.48
2023-03-03T16:32:12.592Z,65.03
2023-03-03T16:34:48.671Z,52.95
2023-03-03T16:37:40.798Z,50.47
2023-03-03T16:40:13.716Z,36.67
2023-03-03T16:42:44.624Z,29.85
2023-03-03T16:45:25.213Z,28.12
2023-03-03T16:48:08.260Z,30.70
2023-03-03T16:53:40.903Z,32.92
2023-03-03T16:56:17.222Z,36.20
2023-03-03T16:59:11.381Z,33.83
2023-03-03T17:02:12.026Z,33.28
2023-03-03T17:04:59.110Z,36.47
2023-03-03T17:07:56.070Z,30.80
2023-03-03T17:10:28.183Z,38.90
2023-03-03T17:13:01.958Z,32.67
2023-03-03T17:15:46.408Z,37.50
2023-03-03T17:18:45.061Z,40.00
2023-03-03T17:21:36.737Z,33.00
2023-03-03T17:24:25.678Z,36.55
2023-03-03T17:27:18.679Z,37.25
2023-03-03T17:32:22.684Z,39.17
2023-03-03T17:35:21.345Z,37.67
2023-03-03T17:38:10.984Z,41.60
2023-03-03T17:40:41.362Z,35.70
2023-03-03T17:43:39.233Z,36.15
2023-03-03T17:46:15.032Z,35.17
2023-03-03T17:48:58.061Z,32.70
2023-03-03T17:52:04.621Z,32.13
2023-03-03T17:54:44.008Z,35.45
2023-03-03T17:57:26.880Z,35.67
2023-03-03T18:00:17.014Z,43.50
2023-03-03T18:03:18.357Z,44.97
2023-03-03T18:06:04.110Z,44.28
2023-03-03T18:08:46.683Z,43.25
2023-03-03T18:11:29.568Z,37.67
2023-03-03T18:14:02.656Z,42.03
2023-03-03T18:16:41.106Z,37.88
2023-03-03T18:19:39.790Z,45.00
2023-03-03T18:22:11.718Z,48.70
2023-03-03T18:24:54.670Z,44.65
2023-03-03T18:30:07.623Z,42.70
2023-03-03T18:35:32.902Z,74.93
2023-03-03T18:38:15.839Z,81.85
2023-03-03T18:41:11.117Z,83.35
2023-03-03T18:43:44.650Z,77.65
2023-03-03T18:46:22.611Z,76.62
2023-03-03T18:49:06.254Z,67.03
2023-03-03T18:51:37.050Z,68.87
2023-03-03T18:54:21.879Z,69.70
2023-03-03T18:56:59.916Z,63.95
2023-03-03T18:59:36.340Z,58.28
2023-03-03T19:02:12.810Z,70.65
2023-03-03T19:04:45.779Z,66.45
2023-03-03T19:07:29.672Z,59.33
2023-03-03T19:10:02.728Z,64.20
2023-03-03T19:12:57.897Z,62.17
2023-03-03T19:15:31.977Z,60.88
2023-03-03T19:18:15.004Z,58.63
2023-03-03T19:20:45.698Z,52.75
2023-03-03T19:23:22.677Z,59.60
2023-03-03T19:26:30.432Z,68.80
2023-03-03T19:29:07.102Z,65.25
2023-03-03T19:31:45.587Z,65.78
2023-03-03T19:34:45.917Z,64.53
2023-03-03T19:37:40.880Z,67.53
2023-03-03T19:40:14.277Z,59.97
2023-03-03T19:42:47.591Z,63.50
2023-03-03T19:45:18.214Z,69.07
2023-03-03T19:47:56.107Z,55.42
2023-03-03T19:50:33.220Z,57.40
2023-03-03T19:53:25.324Z,60.28
2023-03-03T19:56:18.522Z,62.83
2023-03-03T20:01:51.211Z,56.60
2023-03-03T20:04:42.926Z,64.65
2023-03-03T20:07:17.554Z,60.70
2023-03-03T20:09:47.852Z,65.40
2023-03-03T20:12:24.340Z,62.95
2023-03-03T20:15:01.973Z,63.72
2023-03-03T20:17:51.065Z,65.05
2023-03-03T20:20:43.479Z,61.50
2023-03-03T20:23:32.895Z,60.08
2023-03-03T20:26:14.566Z,63.85
2023-03-03T20:28:48.118Z,70.10
2023-03-03T20:31:35.995Z,76.22
2023-03-03T20:34:18.633Z,85.70
2023-03-03T20:36:58.918Z,80.72
2023-03-03T20:39:50.772Z,72.20
2023-03-03T20:42:33.167Z,75.77
2023-03-03T20:45:52.750Z,76.47
2023-03-03T20:48:57.985Z,78.50
2023-03-03T20:51:46.808Z,81.40
2023-03-03T20:54:23.297Z,83.40
2023-03-03T20:56:59.991Z,72.47
2023-03-03T20:59:35.673Z,68.03
2023-03-03T21:02:18.370Z,58.72
2023-03-03T21:04:46.040Z,55.42
2023-03-03T21:07:24.731Z,50.45
2023-03-03T21:10:23.974Z,45.08
2023-03-03T21:12:55.976Z,48.22
2023-03-03T21:15:25.458Z,46.28
2023-03-03T21:17:54.917Z,50.10
2023-03-03T21:20:25.231Z,48.20
2023-03-03T21:22:53.157Z,54.78
2023-03-03T21:25:45.333Z,52.08
2023-03-03T21:28:20.552Z,51.97
2023-03-03T21:31:16.791Z,50.45
2023-03-03T21:33:52.612Z,52.05
2023-03-03T21:36:32.222Z,49.83
2023-03-03T21:39:02.148Z,55.63
2023-03-03T21:41:50.855Z,53.17
2023-03-03T21:44:30.768Z,53.55
2023-03-03T21:46:58.727Z,59.03
2023-03-03T21:49:26.678Z,58.22
2023-03-03T21:51:57.642Z,61.63
2023-03-03T21:54:25.106Z,64.00
2023-03-03T21:56:53.193Z,61.55
2023-03-03T21:59:20.639Z,60.80
2023-03-03T22:02:04.105Z,59.92
2023-03-03T22:04:35.322Z,61.80
2023-03-03T22:07:02.751Z,57.85
2023-03-03T22:09:30.200Z,55.17
2023-03-03T22:11:57.898Z,59.45
2023-03-03T22:14:25.246Z,54.67
2023-03-03T22:16:52.837Z,58.70
2023-03-03T22:19:20.567Z,60.67
2023-03-03T22:21:49.633Z,61.03
2023-03-03T22:24:17.862Z,55.88
2023-03-03T22:26:45.494Z,54.05
2023-03-03T22:29:13.001Z,53.97
2023-03-03T22:31:40.440Z,54.13
2023-03-03T22:34:08.534Z,58.03
2023-03-03T22:36:35.910Z,60.35
2023-03-03T22:39:03.366Z,56.42
2023-03-03T22:41:31.300Z,62.15
2023-03-03T22:43:58.781Z,63.58
2023-03-03T22:46:26.241Z,60.65
2023-03-03T22:48:53.994Z,57.28
2023-03-03T22:51:24.374Z,59.20
2023-03-03T22:53:51.799Z,61.30
2023-03-03T22:56:19.449Z,57.17
2023-03-03T22:58:46.970Z,59.70
2023-03-03T23:01:14.319Z,55.75
2023-03-03T23:03:41.933Z,57.30
2023-03-03T23:06:09.311Z,56.13
2023-03-03T23:08:36.948Z,53.63
2023-03-03T23:11:04.698Z,52.35
2023-03-03T23:13:32.593Z,51.80
2023-03-03T23:16:00.325Z,52.15
2023-03-03T23:18:28.643Z,52.10
2023-03-03T23:20:56.594Z,49.28
2023-03-03T23:23:24.161Z,53.25
2023-03-03T23:25:51.807Z,51.47
2023-03-03T23:28:19.354Z,53.67
2023-03-03T23:30:46.844Z,54.28
2023-03-03T23:33:14.757Z,52.40
2023-03-03T23:35:42.162Z,53.97
2023-03-03T23:38:15.128Z,52.55
2023-03-03T23:40:42.996Z,54.28
2023-03-03T23:43:10.436Z,64.95
2023-03-03T23:45:37.936Z,52.28
2023-03-03T23:48:06.110Z,57.00
2023-03-03T23:50:37.095Z,54.88
2023-03-03T23:53:05.384Z,49.70
2023-03-03T23:55:33.133Z,50.03
2023-03-03T23:58:00.586Z,45.50
